sensor_id;sensor_type;location;lat;lon;timestamp;pressure;altitude;pressure_sealevel;temperature;humidity
9969;BME280;5025;48.890;9.278;2023-04-27T00:00:35;98890.84;;;9.98;58.76
9969;BME280;5025;48.890;9.278;2023-04-27T00:03:00;98876.78;;;9.96;59.00
9969;BME280;5025;48.890;9.278;2023-04-27T00:05:32;98874.31;;;9.95;59.08
9969;BME280;5025;48.890;9.278;2023-04-27T00:07:57;98875.34;;;9.94;59.26
9969;BME280;5025;48.890;9.278;2023-04-27T00:10:23;98876.38;;;9.93;59.27
9969;BME280;5025;48.890;9.278;2023-04-27T00:12:48;98876.81;;;9.90;59.41
9969;BME280;5025;48.890;9.278;2023-04-27T00:15:13;98883.28;;;9.89;59.62
9969;BME280;5025;48.890;9.278;2023-04-27T00:17:38;98879.38;;;9.84;59.48
9969;BME280;5025;48.890;9.278;2023-04-27T00:20:04;98874.19;;;9.83;59.72
9969;BME280;5025;48.890;9.278;2023-04-27T00:22:31;98880.41;;;9.83;59.92
9969;BME280;5025;48.890;9.278;2023-04-27T00:24:59;98868.19;;;9.81;59.76
9969;BME280;5025;48.890;9.278;2023-04-27T00:27:24;98867.81;;;9.77;60.03
9969;BME280;5025;48.890;9.278;2023-04-27T00:29:49;98870.50;;;9.77;60.13
9969;BME280;5025;48.890;9.278;2023-04-27T00:32:15;98870.13;;;9.74;60.04
9969;BME280;5025;48.890;9.278;2023-04-27T00:34:40;98865.41;;;9.69;60.56
9969;BME280;5025;48.890;9.278;2023-04-27T00:37:05;98864.81;;;9.67;60.41
9969;BME280;5025;48.890;9.278;2023-04-27T00:39:33;98862.09;;;9.67;60.46
9969;BME280;5025;48.890;9.278;2023-04-27T00:41:59;98861.69;;;9.63;60.65
9969;BME280;5025;48.890;9.278;2023-04-27T00:44:25;98858.19;;;9.63;60.89
9969;BME280;5025;48.890;9.278;2023-04-27T00:46:51;98860.88;;;9.63;60.82
9969;BME280;5025;48.890;9.278;2023-04-27T00:49:18;98860.28;;;9.61;60.96
9969;BME280;5025;48.890;9.278;2023-04-27T00:51:43;98861.75;;;9.57;60.86
9969;BME280;5025;48.890;9.278;2023-04-27T00:54:09;98850.38;;;9.55;61.28
9969;BME280;5025;48.890;9.278;2023-04-27T00:56:35;98856.00;;;9.53;61.41
9969;BME280;5025;48.890;9.278;2023-04-27T00:59:00;98856.44;;;9.50;61.37
9969;BME280;5025;48.890;9.278;2023-04-27T01:01:26;98851.50;;;9.47;61.45
9969;BME280;5025;48.890;9.278;2023-04-27T01:03:53;98861.63;;;9.45;61.62
9969;BME280;5025;48.890;9.278;2023-04-27T01:06:18;98859.16;;;9.43;61.78
9969;BME280;5025;48.890;9.278;2023-04-27T01:08:44;98862.09;;;9.42;61.93
9969;BME280;5025;48.890;9.278;2023-04-27T01:11:10;98864.19;;;9.40;61.88
9969;BME280;5025;48.890;9.278;2023-04-27T01:13:36;98857.34;;;9.37;61.87
9969;BME280;5025;48.890;9.278;2023-04-27T01:16:01;98856.53;;;9.37;62.09
9969;BME280;5025;48.890;9.278;2023-04-27T01:18:26;98867.53;;;9.35;62.01
9969;BME280;5025;48.890;9.278;2023-04-27T01:20:51;98865.06;;;9.33;62.28
9969;BME280;5025;48.890;9.278;2023-04-27T01:23:17;98869.00;;;9.31;62.14
9969;BME280;5025;48.890;9.278;2023-04-27T01:25:42;98858.66;;;9.28;61.94
9969;BME280;5025;48.890;9.278;2023-04-27T01:28:07;98858.88;;;9.26;62.13
9969;BME280;5025;48.890;9.278;2023-04-27T01:30:33;98862.41;;;9.27;62.39
9969;BME280;5025;48.890;9.278;2023-04-27T01:32:58;98863.44;;;9.26;62.43
9969;BME280;5025;48.890;9.278;2023-04-27T01:38:45;98857.31;;;9.19;62.57
9969;BME280;5025;48.890;9.278;2023-04-27T01:41:10;98853.97;;;9.17;62.78
9969;BME280;5025;48.890;9.278;2023-04-27T01:43:35;98864.97;;;9.15;62.72
9969;BME280;5025;48.890;9.278;2023-04-27T01:46:08;98860.88;;;9.12;62.87
9969;BME280;5025;48.890;9.278;2023-04-27T01:48:34;98867.28;;;9.11;63.07
9969;BME280;5025;48.890;9.278;2023-04-27T01:51:00;98864.00;;;9.09;63.14
9969;BME280;5025;48.890;9.278;2023-04-27T01:53:26;98864.44;;;9.06;63.18
9969;BME280;5025;48.890;9.278;2023-04-27T01:55:52;98864.88;;;9.03;63.32
9969;BME280;5025;48.890;9.278;2023-04-27T01:58:17;98870.69;;;9.00;63.35
9969;BME280;5025;48.890;9.278;2023-04-27T02:00:42;98865.50;;;8.99;63.38
9969;BME280;5025;48.890;9.278;2023-04-27T02:03:07;98871.13;;;8.97;63.43
9969;BME280;5025;48.890;9.278;2023-04-27T02:05:33;98866.16;;;8.94;63.22
9969;BME280;5025;48.890;9.278;2023-04-27T02:07:58;98872.78;;;8.91;63.60
9969;BME280;5025;48.890;9.278;2023-04-27T02:10:23;98876.53;;;8.90;63.68
9969;BME280;5025;48.890;9.278;2023-04-27T02:12:49;98877.78;;;8.88;63.64
9969;BME280;5025;48.890;9.278;2023-04-27T02:15:14;98876.56;;;8.84;63.74
9969;BME280;5025;48.890;9.278;2023-04-27T02:17:40;98878.66;;;8.82;63.60
9969;BME280;5025;48.890;9.278;2023-04-27T02:20:06;98877.81;;;8.81;63.73
9969;BME280;5025;48.890;9.278;2023-04-27T02:22:31;98872.84;;;8.78;63.92
9969;BME280;5025;48.890;9.278;2023-04-27T02:24:56;98882.38;;;8.81;63.76
9969;BME280;5025;48.890;9.278;2023-04-27T02:27:22;98876.41;;;8.78;63.72
9969;BME280;5025;48.890;9.278;2023-04-27T02:29:47;98886.09;;;8.79;63.88
9969;BME280;5025;48.890;9.278;2023-04-27T02:32:12;98886.94;;;8.80;63.96
9969;BME280;5025;48.890;9.278;2023-04-27T02:34:37;98886.09;;;8.79;64.04
9969;BME280;5025;48.890;9.278;2023-04-27T02:37:03;98894.41;;;8.78;64.17
9969;BME280;5025;48.890;9.278;2023-04-27T02:39:28;98891.91;;;8.76;64.21
9969;BME280;5025;48.890;9.278;2023-04-27T02:41:53;98899.38;;;8.74;64.06
9969;BME280;5025;48.890;9.278;2023-04-27T02:44:19;98895.47;;;8.70;64.19
9969;BME280;5025;48.890;9.278;2023-04-27T02:46:44;98892.78;;;8.70;64.21
9969;BME280;5025;48.890;9.278;2023-04-27T02:49:09;98894.84;;;8.68;64.14
9969;BME280;5025;48.890;9.278;2023-04-27T02:51:35;98888.44;;;8.69;64.36
9969;BME280;5025;48.890;9.278;2023-04-27T02:54:00;98891.13;;;8.69;64.14
9969;BME280;5025;48.890;9.278;2023-04-27T02:56:25;98895.47;;;8.70;64.30
9969;BME280;5025;48.890;9.278;2023-04-27T02:58:51;98902.13;;;8.68;64.40
9969;BME280;5025;48.890;9.278;2023-04-27T03:01:16;98903.75;;;8.69;64.30
9969;BME280;5025;48.890;9.278;2023-04-27T03:03:45;98893.63;;;8.64;64.27
9969;BME280;5025;48.890;9.278;2023-04-27T03:06:11;98895.72;;;8.62;64.55
9969;BME280;5025;48.890;9.278;2023-04-27T03:08:37;98890.53;;;8.60;64.56
9969;BME280;5025;48.890;9.278;2023-04-27T03:11:02;98896.97;;;8.59;64.78
9969;BME280;5025;48.890;9.278;2023-04-27T03:13:28;98905.25;;;8.58;64.35
9969;BME280;5025;48.890;9.278;2023-04-27T03:15:53;98900.72;;;8.58;64.48
9969;BME280;5025;48.890;9.278;2023-04-27T03:18:18;98901.34;;;8.54;64.50
9969;BME280;5025;48.890;9.278;2023-04-27T03:20:44;98897.81;;;8.53;64.46
9969;BME280;5025;48.890;9.278;2023-04-27T03:23:09;98897.41;;;8.50;64.51
9969;BME280;5025;48.890;9.278;2023-04-27T03:25:36;98901.78;;;8.51;64.35
9969;BME280;5025;48.890;9.278;2023-04-27T03:28:01;98902.81;;;8.50;64.43
9969;BME280;5025;48.890;9.278;2023-04-27T03:30:26;98899.91;;;8.51;64.47
9969;BME280;5025;48.890;9.278;2023-04-27T03:32:52;98904.25;;;8.52;64.45
9969;BME280;5025;48.890;9.278;2023-04-27T03:35:17;98910.25;;;8.54;64.55
9969;BME280;5025;48.890;9.278;2023-04-27T03:37:42;98896.19;;;8.46;64.64
9969;BME280;5025;48.890;9.278;2023-04-27T03:40:10;98894.94;;;8.41;64.86
9969;BME280;5025;48.890;9.278;2023-04-27T03:42:36;98894.09;;;8.41;64.85
9969;BME280;5025;48.890;9.278;2023-04-27T03:45:01;98894.72;;;8.43;64.98
9969;BME280;5025;48.890;9.278;2023-04-27T03:47:27;98898.25;;;8.43;65.22
9969;BME280;5025;48.890;9.278;2023-04-27T03:49:52;98903.00;;;8.41;65.23
9969;BME280;5025;48.890;9.278;2023-04-27T03:52:17;98898.66;;;8.40;65.36
9969;BME280;5025;48.890;9.278;2023-04-27T03:54:43;98901.34;;;8.40;65.55
9969;BME280;5025;48.890;9.278;2023-04-27T03:57:08;98905.69;;;8.41;65.69
9969;BME280;5025;48.890;9.278;2023-04-27T03:59:33;98907.53;;;8.41;65.91
9969;BME280;5025;48.890;9.278;2023-04-27T04:01:58;98908.00;;;8.45;65.77
9969;BME280;5025;48.890;9.278;2023-04-27T04:04:24;98901.56;;;8.46;65.80
9969;BME280;5025;48.890;9.278;2023-04-27T04:06:49;98899.06;;;8.44;66.14
9969;BME280;5025;48.890;9.278;2023-04-27T04:09:15;98902.63;;;8.45;66.09
9969;BME280;5025;48.890;9.278;2023-04-27T04:11:40;98902.81;;;8.43;66.17
9969;BME280;5025;48.890;9.278;2023-04-27T04:14:05;98910.03;;;8.42;66.31
9969;BME280;5025;48.890;9.278;2023-04-27T04:16:32;98898.06;;;8.45;66.20
9969;BME280;5025;48.890;9.278;2023-04-27T04:18:59;98908.00;;;8.45;66.31
9969;BME280;5025;48.890;9.278;2023-04-27T04:21:25;98912.53;;;8.44;66.48
9969;BME280;5025;48.890;9.278;2023-04-27T04:23:53;98909.84;;;8.44;66.13
9969;BME280;5025;48.890;9.278;2023-04-27T04:26:18;98901.34;;;8.40;66.44
9969;BME280;5025;48.890;9.278;2023-04-27T04:28:44;98915.22;;;8.44;66.51
9969;BME280;5025;48.890;9.278;2023-04-27T04:31:10;98917.09;;;8.43;66.35
9969;BME280;5025;48.890;9.278;2023-04-27T04:33:35;98909.03;;;8.43;66.41
9969;BME280;5025;48.890;9.278;2023-04-27T04:36:04;98921.84;;;8.41;66.61
9969;BME280;5025;48.890;9.278;2023-04-27T04:38:29;98925.56;;;8.40;66.58
9969;BME280;5025;48.890;9.278;2023-04-27T04:40:54;98920.19;;;8.40;66.82
9969;BME280;5025;48.890;9.278;2023-04-27T04:43:19;98921.84;;;8.41;66.89
9969;BME280;5025;48.890;9.278;2023-04-27T04:45:45;98918.09;;;8.42;66.85
9969;BME280;5025;48.890;9.278;2023-04-27T04:48:13;98919.97;;;8.42;66.81
9969;BME280;5025;48.890;9.278;2023-04-27T04:50:38;98920.78;;;8.42;66.92
9969;BME280;5025;48.890;9.278;2023-04-27T04:53:04;98920.78;;;8.42;67.21
9969;BME280;5025;48.890;9.278;2023-04-27T04:55:29;98915.00;;;8.46;66.94
9969;BME280;5025;48.890;9.278;2023-04-27T04:57:54;98920.59;;;8.44;66.90
9969;BME280;5025;48.890;9.278;2023-04-27T05:00:20;98920.78;;;8.42;66.97
9969;BME280;5025;48.890;9.278;2023-04-27T05:02:46;98921.47;;;8.45;67.16
9969;BME280;5025;48.890;9.278;2023-04-27T05:05:11;98924.75;;;8.47;67.15
9969;BME280;5025;48.890;9.278;2023-04-27T05:07:36;98918.13;;;8.49;67.21
9969;BME280;5025;48.890;9.278;2023-04-27T05:10:02;98926.81;;;8.51;67.32
9969;BME280;5025;48.890;9.278;2023-04-27T05:12:27;98922.03;;;8.53;67.07
9969;BME280;5025;48.890;9.278;2023-04-27T05:14:52;98929.06;;;8.54;67.56
9969;BME280;5025;48.890;9.278;2023-04-27T05:17:18;98926.19;;;8.56;67.31
9969;BME280;5025;48.890;9.278;2023-04-27T05:19:43;98928.66;;;8.57;67.29
9969;BME280;5025;48.890;9.278;2023-04-27T05:22:09;98922.25;;;8.58;67.41
9969;BME280;5025;48.890;9.278;2023-04-27T05:24:34;98918.69;;;8.58;67.68
9969;BME280;5025;48.890;9.278;2023-04-27T05:27:00;98912.28;;;8.59;67.44
9969;BME280;5025;48.890;9.278;2023-04-27T05:29:25;98927.19;;;8.61;67.32
9969;BME280;5025;48.890;9.278;2023-04-27T05:31:51;98925.94;;;8.64;67.36
9969;BME280;5025;48.890;9.278;2023-04-27T05:34:16;98927.16;;;8.68;67.34
9969;BME280;5025;48.890;9.278;2023-04-27T05:36:42;98926.75;;;8.71;67.20
9969;BME280;5025;48.890;9.278;2023-04-27T05:39:07;98928.41;;;8.72;67.07
9969;BME280;5025;48.890;9.278;2023-04-27T05:41:32;98934.41;;;8.74;67.22
9969;BME280;5025;48.890;9.278;2023-04-27T05:43:58;98933.97;;;8.77;67.06
9969;BME280;5025;48.890;9.278;2023-04-27T05:46:23;98933.38;;;8.75;67.26
9969;BME280;5025;48.890;9.278;2023-04-27T05:48:48;98939.34;;;8.77;67.06
9969;BME280;5025;48.890;9.278;2023-04-27T05:51:14;98940.38;;;8.76;67.02
9969;BME280;5025;48.890;9.278;2023-04-27T05:53:39;98942.66;;;8.79;66.99
9969;BME280;5025;48.890;9.278;2023-04-27T05:56:05;98941.00;;;8.78;66.99
9969;BME280;5025;48.890;9.278;2023-04-27T05:58:31;98951.34;;;8.82;67.11
9969;BME280;5025;48.890;9.278;2023-04-27T06:00:57;98954.06;;;8.82;67.12
9969;BME280;5025;48.890;9.278;2023-04-27T06:03:23;98949.88;;;8.86;67.29
9969;BME280;5025;48.890;9.278;2023-04-27T06:05:56;98954.44;;;8.85;66.96
9969;BME280;5025;48.890;9.278;2023-04-27T06:08:21;98958.38;;;8.89;66.81
9969;BME280;5025;48.890;9.278;2023-04-27T06:10:47;98962.06;;;8.95;66.90
9969;BME280;5025;48.890;9.278;2023-04-27T06:13:12;98963.50;;;8.97;66.98
9969;BME280;5025;48.890;9.278;2023-04-27T06:15:38;98966.38;;;9.03;66.91
9969;BME280;5025;48.890;9.278;2023-04-27T06:18:03;98968.44;;;9.07;66.91
9969;BME280;5025;48.890;9.278;2023-04-27T06:20:29;98965.09;;;9.12;66.79
9969;BME280;5025;48.890;9.278;2023-04-27T06:22:56;98967.13;;;9.17;67.01
9969;BME280;5025;48.890;9.278;2023-04-27T06:25:21;98957.38;;;9.22;66.92
9969;BME280;5025;48.890;9.278;2023-04-27T06:27:47;98960.47;;;9.26;66.95
9969;BME280;5025;48.890;9.278;2023-04-27T06:30:13;98965.41;;;9.29;66.95
9969;BME280;5025;48.890;9.278;2023-04-27T06:32:38;98967.25;;;9.35;67.00
9969;BME280;5025;48.890;9.278;2023-04-27T06:35:04;98969.09;;;9.41;67.02
9969;BME280;5025;48.890;9.278;2023-04-27T06:37:29;98975.91;;;9.44;66.92
9969;BME280;5025;48.890;9.278;2023-04-27T06:39:54;98967.63;;;9.45;66.87
9969;BME280;5025;48.890;9.278;2023-04-27T06:42:20;98965.53;;;9.47;66.77
9969;BME280;5025;48.890;9.278;2023-04-27T06:44:45;98960.13;;;9.47;66.67
9969;BME280;5025;48.890;9.278;2023-04-27T06:47:10;98964.50;;;9.48;66.83
9969;BME280;5025;48.890;9.278;2023-04-27T06:49:36;98966.97;;;9.50;66.79
9969;BME280;5025;48.890;9.278;2023-04-27T06:52:01;98967.34;;;9.54;66.67
9969;BME280;5025;48.890;9.278;2023-04-27T06:54:27;98969.59;;;9.57;66.95
9969;BME280;5025;48.890;9.278;2023-04-27T06:56:52;98971.66;;;9.61;66.50
9969;BME280;5025;48.890;9.278;2023-04-27T06:59:19;98974.13;;;9.63;66.65
9969;BME280;5025;48.890;9.278;2023-04-27T07:01:44;98967.28;;;9.67;66.63
9969;BME280;5025;48.890;9.278;2023-04-27T07:04:10;98967.44;;;9.72;66.33
9969;BME280;5025;48.890;9.278;2023-04-27T07:06:35;98983.78;;;9.77;66.30
9969;BME280;5025;48.890;9.278;2023-04-27T07:09:00;98978.16;;;9.79;66.30
9969;BME280;5025;48.890;9.278;2023-04-27T07:11:26;98981.84;;;9.84;66.17
9969;BME280;5025;48.890;9.278;2023-04-27T07:13:51;98982.88;;;9.90;65.85
9969;BME280;5025;48.890;9.278;2023-04-27T07:16:18;98991.13;;;9.95;65.51
9969;BME280;5025;48.890;9.278;2023-04-27T07:18:43;98982.16;;;10.01;65.31
9969;BME280;5025;48.890;9.278;2023-04-27T07:21:08;98976.69;;;10.08;65.21
9969;BME280;5025;48.890;9.278;2023-04-27T07:23:34;98979.56;;;10.13;64.34
9969;BME280;5025;48.890;9.278;2023-04-27T07:25:59;98981.59;;;10.18;64.21
9969;BME280;5025;48.890;9.278;2023-04-27T07:28:27;98980.94;;;10.22;64.24
9969;BME280;5025;48.890;9.278;2023-04-27T07:30:54;98987.06;;;10.30;63.57
9969;BME280;5025;48.890;9.278;2023-04-27T07:33:19;98973.56;;;10.36;63.59
9969;BME280;5025;48.890;9.278;2023-04-27T07:35:46;98979.94;;;10.42;63.24
9969;BME280;5025;48.890;9.278;2023-04-27T07:38:12;98967.50;;;10.41;62.72
9969;BME280;5025;48.890;9.278;2023-04-27T07:40:37;98973.50;;;10.43;62.42
9969;BME280;5025;48.890;9.278;2023-04-27T07:43:02;98968.25;;;10.48;62.29
9969;BME280;5025;48.890;9.278;2023-04-27T07:45:29;98974.63;;;10.54;62.16
9969;BME280;5025;48.890;9.278;2023-04-27T07:47:58;98972.75;;;10.54;62.09
9969;BME280;5025;48.890;9.278;2023-04-27T07:50:27;98970.19;;;10.59;61.85
9969;BME280;5025;48.890;9.278;2023-04-27T07:52:54;98970.72;;;10.68;61.71
9969;BME280;5025;48.890;9.278;2023-04-27T07:55:21;98970.41;;;10.76;61.42
9969;BME280;5025;48.890;9.278;2023-04-27T07:57:48;98971.63;;;10.81;61.20
9969;BME280;5025;48.890;9.278;2023-04-27T08:00:13;98972.63;;;10.86;60.76
9969;BME280;5025;48.890;9.278;2023-04-27T08:02:40;98968.38;;;10.90;60.52
9969;BME280;5025;48.890;9.278;2023-04-27T08:05:05;98975.38;;;10.98;60.13
9969;BME280;5025;48.890;9.278;2023-04-27T08:07:32;98964.09;;;11.01;59.83
9969;BME280;5025;48.890;9.278;2023-04-27T08:09:58;98962.59;;;11.05;59.84
9969;BME280;5025;48.890;9.278;2023-04-27T08:12:23;98963.19;;;11.07;59.56
9969;BME280;5025;48.890;9.278;2023-04-27T08:14:48;98964.16;;;11.13;59.40
9969;BME280;5025;48.890;9.278;2023-04-27T08:17:13;98966.53;;;11.21;59.26
9969;BME280;5025;48.890;9.278;2023-04-27T08:19:39;98958.97;;;11.30;58.94
9969;BME280;5025;48.890;9.278;2023-04-27T08:22:05;98957.22;;;11.36;58.77
9969;BME280;5025;48.890;9.278;2023-04-27T08:24:30;98950.91;;;11.42;58.48
9969;BME280;5025;48.890;9.278;2023-04-27T08:26:56;98950.22;;;11.46;58.15
9969;BME280;5025;48.890;9.278;2023-04-27T08:29:21;98954.94;;;11.51;57.87
9969;BME280;5025;48.890;9.278;2023-04-27T08:31:47;98954.00;;;11.57;57.65
9969;BME280;5025;48.890;9.278;2023-04-27T08:34:12;98949.53;;;11.63;57.30
9969;BME280;5025;48.890;9.278;2023-04-27T08:36:37;98934.25;;;11.69;57.15
9969;BME280;5025;48.890;9.278;2023-04-27T08:39:03;98940.88;;;11.73;56.96
9969;BME280;5025;48.890;9.278;2023-04-27T08:41:31;98939.94;;;11.79;56.63
9969;BME280;5025;48.890;9.278;2023-04-27T08:43:57;98935.69;;;11.83;56.43
9969;BME280;5025;48.890;9.278;2023-04-27T08:46:24;98936.31;;;11.85;55.88
9969;BME280;5025;48.890;9.278;2023-04-27T08:48:52;98927.69;;;11.88;55.21
9969;BME280;5025;48.890;9.278;2023-04-27T08:51:18;98933.28;;;11.93;55.00
9969;BME280;5025;48.890;9.278;2023-04-27T08:53:49;98929.16;;;12.02;54.51
9969;BME280;5025;48.890;9.278;2023-04-27T08:56:15;98924.09;;;12.18;54.38
9969;BME280;5025;48.890;9.278;2023-04-27T08:58:40;98915.25;;;12.34;54.05
9969;BME280;5025;48.890;9.278;2023-04-27T09:01:06;98920.91;;;12.45;53.31
9969;BME280;5025;48.890;9.278;2023-04-27T09:03:33;98915.94;;;12.42;52.53
9969;BME280;5025;48.890;9.278;2023-04-27T09:06:01;98923.59;;;12.45;51.30
9969;BME280;5025;48.890;9.278;2023-04-27T09:08:28;98929.50;;;12.53;50.94
9969;BME280;5025;48.890;9.278;2023-04-27T09:10:53;98926.88;;;12.59;50.38
9969;BME280;5025;48.890;9.278;2023-04-27T09:13:21;98923.78;;;12.67;50.41
9969;BME280;5025;48.890;9.278;2023-04-27T09:15:48;98919.78;;;12.81;49.90
9969;BME280;5025;48.890;9.278;2023-04-27T09:18:22;98927.84;;;12.93;49.72
9969;BME280;5025;48.890;9.278;2023-04-27T09:20:49;98924.09;;;12.94;49.10
9969;BME280;5025;48.890;9.278;2023-04-27T09:23:27;98925.50;;;12.97;48.15
9969;BME280;5025;48.890;9.278;2023-04-27T09:25:54;98931.72;;;13.09;48.12
9969;BME280;5025;48.890;9.278;2023-04-27T09:28:20;98928.13;;;13.20;47.55
9969;BME280;5025;48.890;9.278;2023-04-27T09:30:54;98933.78;;;13.19;45.98
9969;BME280;5025;48.890;9.278;2023-04-27T09:33:25;98943.75;;;13.30;45.93
9969;BME280;5025;48.890;9.278;2023-04-27T09:35:51;98943.38;;;13.38;46.03
9969;BME280;5025;48.890;9.278;2023-04-27T09:38:20;98938.69;;;13.34;42.38
9969;BME280;5025;48.890;9.278;2023-04-27T09:40:47;98931.94;;;13.07;41.81
9969;BME280;5025;48.890;9.278;2023-04-27T09:43:13;98931.56;;;13.16;42.24
9969;BME280;5025;48.890;9.278;2023-04-27T09:45:38;98928.75;;;13.39;42.42
9969;BME280;5025;48.890;9.278;2023-04-27T09:48:05;98930.00;;;13.49;41.28
9969;BME280;5025;48.890;9.278;2023-04-27T09:50:35;98922.69;;;13.66;41.48
9969;BME280;5025;48.890;9.278;2023-04-27T09:53:02;98927.25;;;13.77;41.66
9969;BME280;5025;48.890;9.278;2023-04-27T09:55:34;98921.91;;;13.83;41.42
9969;BME280;5025;48.890;9.278;2023-04-27T10:03:33;98908.56;;;14.15;41.02
9969;BME280;5025;48.890;9.278;2023-04-27T10:06:41;98912.50;;;14.24;40.88
9969;BME280;5025;48.890;9.278;2023-04-27T10:09:11;98911.50;;;14.30;39.06
9969;BME280;5025;48.890;9.278;2023-04-27T10:11:41;98914.22;;;14.30;39.11
9969;BME280;5025;48.890;9.278;2023-04-27T10:14:16;98918.31;;;14.33;39.17
9969;BME280;5025;48.890;9.278;2023-04-27T10:16:55;98916.81;;;14.42;39.63
9969;BME280;5025;48.890;9.278;2023-04-27T10:19:22;98919.41;;;14.54;39.85
9969;BME280;5025;48.890;9.278;2023-04-27T10:24:17;98924.28;;;14.69;39.61
9969;BME280;5025;48.890;9.278;2023-04-27T10:26:47;98917.31;;;14.78;39.52
9969;BME280;5025;48.890;9.278;2023-04-27T10:29:12;98917.06;;;14.80;39.39
9969;BME280;5025;48.890;9.278;2023-04-27T10:31:45;98916.31;;;14.84;39.52
9969;BME280;5025;48.890;9.278;2023-04-27T10:34:15;98918.00;;;14.91;39.32
9969;BME280;5025;48.890;9.278;2023-04-27T10:36:41;98917.75;;;14.92;39.41
9969;BME280;5025;48.890;9.278;2023-04-27T10:39:14;98904.47;;;14.96;39.09
9969;BME280;5025;48.890;9.278;2023-04-27T10:41:51;98913.06;;;15.10;39.16
9969;BME280;5025;48.890;9.278;2023-04-27T10:44:19;98901.97;;;15.16;38.99
9969;BME280;5025;48.890;9.278;2023-04-27T10:46:51;98905.31;;;15.23;39.06
9969;BME280;5025;48.890;9.278;2023-04-27T10:49:17;98900.50;;;15.31;38.93
9969;BME280;5025;48.890;9.278;2023-04-27T10:51:43;98903.38;;;15.46;39.04
9969;BME280;5025;48.890;9.278;2023-04-27T10:54:08;98897.53;;;15.65;39.09
9969;BME280;5025;48.890;9.278;2023-04-27T10:56:33;98904.16;;;15.74;40.38
9969;BME280;5025;48.890;9.278;2023-04-27T10:59:02;98900.94;;;15.77;39.66
9969;BME280;5025;48.890;9.278;2023-04-27T11:01:28;98901.69;;;15.72;39.52
9969;BME280;5025;48.890;9.278;2023-04-27T11:03:57;98894.47;;;15.56;38.70
9969;BME280;5025;48.890;9.278;2023-04-27T11:06:23;98894.34;;;15.73;38.83
9969;BME280;5025;48.890;9.278;2023-04-27T11:08:49;98894.53;;;15.99;39.17
9969;BME280;5025;48.890;9.278;2023-04-27T11:11:15;98892.53;;;16.21;39.31
9969;BME280;5025;48.890;9.278;2023-04-27T11:13:43;98886.91;;;16.38;39.62
9969;BME280;5025;48.890;9.278;2023-04-27T11:16:09;98889.13;;;16.46;39.32
9969;BME280;5025;48.890;9.278;2023-04-27T11:18:37;98882.41;;;16.70;39.15
9969;BME280;5025;48.890;9.278;2023-04-27T11:21:10;98874.63;;;16.89;39.18
9969;BME280;5025;48.890;9.278;2023-04-27T11:23:37;98878.47;;;17.08;39.23
9969;BME280;5025;48.890;9.278;2023-04-27T11:26:17;98884.22;;;17.27;39.24
9969;BME280;5025;48.890;9.278;2023-04-27T11:28:47;98875.50;;;17.25;37.87
9969;BME280;5025;48.890;9.278;2023-04-27T11:31:21;98877.13;;;17.21;37.51
9969;BME280;5025;48.890;9.278;2023-04-27T11:33:49;98875.78;;;17.24;37.54
9969;BME280;5025;48.890;9.278;2023-04-27T11:36:21;98871.16;;;17.34;37.88
9969;BME280;5025;48.890;9.278;2023-04-27T11:38:47;98867.88;;;17.53;38.05
9969;BME280;5025;48.890;9.278;2023-04-27T11:41:13;98867.06;;;17.73;37.75
9969;BME280;5025;48.890;9.278;2023-04-27T11:43:42;98861.03;;;17.81;37.63
9969;BME280;5025;48.890;9.278;2023-04-27T11:46:10;98876.09;;;17.99;37.52
9969;BME280;5025;48.890;9.278;2023-04-27T11:48:37;98877.19;;;17.98;37.33
9969;BME280;5025;48.890;9.278;2023-04-27T11:51:03;98873.38;;;17.94;36.96
9969;BME280;5025;48.890;9.278;2023-04-27T11:53:31;98880.47;;;17.95;35.65
9969;BME280;5025;48.890;9.278;2023-04-27T11:56:04;98869.81;;;17.99;36.32
9969;BME280;5025;48.890;9.278;2023-04-27T11:58:34;98871.69;;;18.24;36.42
9969;BME280;5025;48.890;9.278;2023-04-27T12:01:00;98870.81;;;18.34;36.07
9969;BME280;5025;48.890;9.278;2023-04-27T12:03:27;98866.75;;;18.21;35.63
9969;BME280;5025;48.890;9.278;2023-04-27T12:05:52;98865.66;;;18.17;35.41
9969;BME280;5025;48.890;9.278;2023-04-27T12:08:18;98854.78;;;17.96;34.26
9969;BME280;5025;48.890;9.278;2023-04-27T12:10:45;98864.34;;;17.88;35.21
9969;BME280;5025;48.890;9.278;2023-04-27T12:13:11;98856.69;;;18.11;35.29
9969;BME280;5025;48.890;9.278;2023-04-27T12:15:40;98852.25;;;18.31;36.17
9969;BME280;5025;48.890;9.278;2023-04-27T12:18:06;98852.97;;;18.57;36.15
9969;BME280;5025;48.890;9.278;2023-04-27T12:20:33;98851.25;;;18.76;36.21
9969;BME280;5025;48.890;9.278;2023-04-27T12:22:58;98846.25;;;18.94;36.30
9969;BME280;5025;48.890;9.278;2023-04-27T12:25:23;98845.09;;;19.05;36.32
9969;BME280;5025;48.890;9.278;2023-04-27T12:27:49;98848.84;;;19.20;35.96
9969;BME280;5025;48.890;9.278;2023-04-27T12:30:15;98844.44;;;19.24;35.11
9969;BME280;5025;48.890;9.278;2023-04-27T12:32:41;98841.69;;;19.24;34.90
9969;BME280;5025;48.890;9.278;2023-04-27T12:35:07;98841.72;;;19.19;34.41
9969;BME280;5025;48.890;9.278;2023-04-27T12:37:33;98838.66;;;19.25;34.25
9969;BME280;5025;48.890;9.278;2023-04-27T12:39:58;98838.66;;;19.25;33.98
9969;BME280;5025;48.890;9.278;2023-04-27T12:42:24;98836.66;;;19.36;33.94
9969;BME280;5025;48.890;9.278;2023-04-27T12:44:50;98830.59;;;19.44;33.73
9969;BME280;5025;48.890;9.278;2023-04-27T12:47:21;98833.81;;;19.51;33.44
9969;BME280;5025;48.890;9.278;2023-04-27T12:49:47;98830.03;;;19.47;34.28
9969;BME280;5025;48.890;9.278;2023-04-27T12:52:12;98831.75;;;19.38;34.05
9969;BME280;5025;48.890;9.278;2023-04-27T12:54:38;98826.06;;;19.29;33.82
9969;BME280;5025;48.890;9.278;2023-04-27T12:57:04;98824.63;;;19.37;33.92
9969;BME280;5025;48.890;9.278;2023-04-27T12:59:32;98825.06;;;19.49;34.35
9969;BME280;5025;48.890;9.278;2023-04-27T13:01:59;98813.94;;;19.70;34.64
9969;BME280;5025;48.890;9.278;2023-04-27T13:04:25;98815.81;;;19.75;34.14
9969;BME280;5025;48.890;9.278;2023-04-27T13:06:50;98810.03;;;19.76;34.33
9969;BME280;5025;48.890;9.278;2023-04-27T13:09:16;98813.53;;;19.87;34.56
9969;BME280;5025;48.890;9.278;2023-04-27T13:11:41;98802.56;;;19.87;34.33
9969;BME280;5025;48.890;9.278;2023-04-27T13:14:06;98807.09;;;19.97;34.26
9969;BME280;5025;48.890;9.278;2023-04-27T13:16:32;98808.88;;;20.12;34.59
9969;BME280;5025;48.890;9.278;2023-04-27T13:18:57;98805.75;;;20.23;34.50
9969;BME280;5025;48.890;9.278;2023-04-27T13:21:22;98800.66;;;20.36;34.11
9969;BME280;5025;48.890;9.278;2023-04-27T13:23:47;98805.00;;;20.37;33.91
9969;BME280;5025;48.890;9.278;2023-04-27T13:26:14;98805.78;;;20.42;34.39
9969;BME280;5025;48.890;9.278;2023-04-27T13:28:40;98800.63;;;20.60;34.36
9969;BME280;5025;48.890;9.278;2023-04-27T13:31:06;98804.66;;;20.68;34.03
9969;BME280;5025;48.890;9.278;2023-04-27T13:33:37;98807.13;;;20.88;33.79